createdAt,value
2019-01-29T15:09:36.797Z,7.93
2019-01-29T15:10:42.990Z,7.59
2019-01-29T15:11:48.992Z,7.31
2019-01-29T15:12:56.810Z,6.99
2019-01-29T15:14:03.650Z,6.68
2019-01-29T15:15:14.631Z,6.40
2019-01-29T15:16:22.877Z,6.12
2019-01-29T15:17:30.157Z,5.85
2019-01-29T15:18:37.697Z,5.61
2019-01-29T15:19:45.970Z,5.36
2019-01-29T15:20:51.530Z,5.16
2019-01-29T15:21:57.774Z,5.47
2019-01-29T15:23:04.519Z,6.13
2019-01-29T15:24:10.278Z,6.84
2019-01-29T15:25:17.870Z,7.44
2019-01-29T15:26:24.428Z,7.99
2019-01-29T15:27:31.386Z,8.25
2019-01-29T15:28:37.354Z,8.14
2019-01-29T15:29:43.097Z,7.81
2019-01-29T15:30:48.718Z,7.45
2019-01-29T15:31:54.656Z,7.02
2019-01-29T15:33:00.396Z,6.61
2019-01-29T15:34:05.960Z,6.27
2019-01-29T15:35:11.706Z,5.95
2019-01-29T15:36:17.454Z,5.66
2019-01-29T15:37:23.165Z,5.33
2019-01-29T15:38:30.150Z,5.16
2019-01-29T15:39:36.311Z,5.49
2019-01-29T15:40:42.157Z,6.06
2019-01-29T15:41:48.280Z,6.78
2019-01-29T15:42:56.045Z,7.41
2019-01-29T15:44:02.130Z,7.90
2019-01-29T15:45:24.090Z,8.20
2019-01-29T15:46:29.958Z,8.00
2019-01-29T15:47:36.529Z,7.66
2019-01-29T15:48:42.297Z,7.23
2019-01-29T15:49:48.931Z,6.85
2019-01-29T15:50:55.637Z,6.48
2019-01-29T15:52:03.837Z,6.13
2019-01-29T15:53:09.897Z,5.82
2019-01-29T15:54:16.118Z,5.53
2019-01-29T15:55:22.342Z,5.24
2019-01-29T15:56:28.217Z,5.20
2019-01-29T15:57:33.964Z,5.66
2019-01-29T15:58:39.818Z,6.22
2019-01-29T15:59:46.797Z,6.91
2019-01-29T16:00:59.114Z,7.49
2019-01-29T16:02:05.358Z,7.89
2019-01-29T16:03:11.069Z,7.85
2019-01-29T16:04:19.185Z,7.52
2019-01-29T16:05:28.558Z,7.16
2019-01-29T16:06:34.576Z,6.79
2019-01-29T16:07:40.690Z,6.47
2019-01-29T16:08:47.480Z,6.12
2019-01-29T16:09:53.397Z,5.81
2019-01-29T16:11:00.138Z,5.57
2019-01-29T16:12:07.236Z,5.30
2019-01-29T16:13:13.689Z,5.18
2019-01-29T16:14:21.018Z,5.56
2019-01-29T16:15:28.871Z,6.09
2019-01-29T16:16:34.818Z,6.74
2019-01-29T16:17:41.910Z,7.34
2019-01-29T16:18:48.850Z,7.79
2019-01-29T16:19:55.090Z,7.79
2019-01-29T16:21:01.601Z,7.52
2019-01-29T16:22:08.510Z,7.19
2019-01-29T16:23:14.671Z,6.86
2019-01-29T16:24:21.217Z,6.57
2019-01-29T16:25:31.729Z,6.24
2019-01-29T16:26:37.711Z,5.96
2019-01-29T16:27:43.478Z,5.70
2019-01-29T16:28:49.390Z,5.46
2019-01-29T16:29:55.248Z,5.22
2019-01-29T16:31:01.550Z,5.30
2019-01-29T16:32:07.950Z,5.67
2019-01-29T16:33:14.278Z,5.74
2019-01-29T16:34:20.317Z,5.63
2019-01-29T16:35:32.950Z,5.44
2019-01-29T16:36:39.330Z,5.22
2019-01-29T16:37:45.396Z,5.29
2019-01-29T16:38:51.437Z,5.64
2019-01-29T16:39:57.739Z,5.74
2019-01-29T16:41:04.596Z,5.63
2019-01-29T16:42:11.958Z,5.41
2019-01-29T16:43:18.230Z,5.22
2019-01-29T16:44:24.560Z,5.32
2019-01-29T16:45:34.350Z,5.67
2019-01-29T16:46:40.494Z,5.70
2019-01-29T16:47:47.210Z,5.58
2019-01-29T16:48:54.518Z,5.40
2019-01-29T16:50:00.716Z,5.20
2019-01-29T16:51:08.390Z,5.34
2019-01-29T16:52:15.484Z,5.70
2019-01-29T16:53:26.049Z,5.74
2019-01-29T16:54:33.037Z,5.60
2019-01-29T16:55:39.516Z,5.43
2019-01-29T16:56:45.581Z,5.23
2019-01-29T16:57:51.344Z,5.27
2019-01-29T16:58:58.424Z,5.63
2019-01-29T17:00:05.477Z,5.70
2019-01-29T17:01:11.659Z,5.58
2019-01-29T17:02:17.752Z,5.40
2019-01-29T17:03:23.631Z,5.23
2019-01-29T17:04:30.230Z,5.32
2019-01-29T17:05:36.565Z,5.67
2019-01-29T17:06:42.791Z,5.73
2019-01-29T17:07:48.959Z,5.64
2019-01-29T17:08:56.096Z,5.46
2019-01-29T17:10:17.244Z,5.24
2019-01-29T17:11:50.291Z,5.32
2019-01-29T17:13:08.266Z,5.66
2019-01-29T17:14:30.639Z,5.58
2019-01-29T17:15:39.677Z,5.40
2019-01-29T17:16:45.751Z,5.23
2019-01-29T17:17:52.058Z,5.32
2019-01-29T17:18:58.698Z,5.66
2019-01-29T17:20:10.358Z,5.67
2019-01-29T17:21:17.537Z,5.58
2019-01-29T17:22:23.391Z,5.40
2019-01-29T17:23:30.279Z,5.22
2019-01-29T17:24:37.610Z,5.29
2019-01-29T17:25:43.637Z,5.60
2019-01-29T17:26:50.918Z,5.71
2019-01-29T17:27:56.925Z,5.60
2019-01-29T17:29:02.697Z,5.46
2019-01-29T17:30:21.957Z,5.30
2019-01-29T17:31:28.098Z,5.27
2019-01-29T17:32:34.556Z,5.61
2019-01-29T17:33:50.138Z,5.67
2019-01-29T17:34:59.378Z,5.56
2019-01-29T17:36:05.518Z,5.39
2019-01-29T17:37:11.750Z,5.27
2019-01-29T17:38:18.735Z,5.24
2019-01-29T17:39:24.758Z,5.57
2019-01-29T17:40:31.877Z,5.67
2019-01-29T17:41:39.300Z,5.57
2019-01-29T17:42:45.419Z,5.41
2019-01-29T17:43:52.186Z,5.27
2019-01-29T17:44:58.900Z,5.27
2019-01-29T17:46:04.818Z,5.60
2019-01-29T17:47:11.225Z,5.67
2019-01-29T17:48:17.401Z,5.58
2019-01-29T17:49:30.799Z,5.44
2019-01-29T17:50:41.636Z,5.24
2019-01-29T17:51:47.756Z,5.30
2019-01-29T17:52:54.200Z,5.60
2019-01-29T17:54:00.910Z,5.67
2019-01-29T17:55:11.229Z,5.57
2019-01-29T17:56:18.298Z,5.40
2019-01-29T17:57:24.257Z,5.22
2019-01-29T17:58:30.098Z,5.29
2019-01-29T17:59:37.381Z,5.58
2019-01-29T18:00:47.317Z,5.67
2019-01-29T18:01:53.217Z,5.56
2019-01-29T18:02:59.350Z,5.37
2019-01-29T18:04:05.403Z,5.22
2019-01-29T18:05:11.290Z,5.34
2019-01-29T18:06:17.295Z,5.63
2019-01-29T18:07:23.230Z,5.67
2019-01-29T18:08:30.276Z,5.57
2019-01-29T18:09:37.836Z,5.41
2019-01-29T18:10:46.279Z,5.23
2019-01-29T18:11:53.090Z,5.26
2019-01-29T18:13:00.059Z,5.68
2019-01-29T18:14:07.658Z,6.26
2019-01-29T18:15:23.218Z,6.99
2019-01-29T18:16:31.863Z,7.75
2019-01-29T18:17:39.258Z,8.34
2019-01-29T18:18:48.785Z,8.76
2019-01-29T18:19:57.640Z,8.72
2019-01-29T18:21:04.639Z,8.48
2019-01-29T18:22:12.238Z,8.14
2019-01-29T18:23:18.977Z,7.85
2019-01-29T18:24:25.177Z,7.55
2019-01-29T18:25:31.841Z,7.27
2019-01-29T18:26:38.711Z,7.02
2019-01-29T18:27:44.998Z,6.76
2019-01-29T18:28:50.819Z,6.55
2019-01-29T18:29:57.777Z,6.31
2019-01-29T18:31:03.605Z,6.12
2019-01-29T18:32:09.658Z,5.92
2019-01-29T18:33:15.818Z,5.75
2019-01-29T18:34:22.838Z,5.56
2019-01-29T18:35:28.737Z,5.40
2019-01-29T18:36:34.677Z,5.20
2019-01-29T18:37:40.739Z,5.32
2019-01-29T18:38:47.450Z,5.64
2019-01-29T18:39:55.377Z,5.70
2019-01-29T18:41:02.840Z,5.61
2019-01-29T18:42:09.257Z,5.47
2019-01-29T18:43:16.237Z,5.30
2019-01-29T18:44:22.966Z,5.24
2019-01-29T18:45:28.989Z,5.58
2019-01-29T18:46:37.596Z,6.17
2019-01-29T18:47:43.897Z,6.98
2019-01-29T18:48:51.458Z,7.66
2019-01-29T18:49:58.357Z,8.30
2019-01-29T18:51:05.957Z,8.70
2019-01-29T18:52:12.372Z,8.66
2019-01-29T18:53:19.239Z,8.44
2019-01-29T18:54:27.397Z,8.13
2019-01-29T18:55:34.460Z,7.79
2019-01-29T18:56:42.937Z,7.52
2019-01-29T18:57:54.317Z,7.19
2019-01-29T18:59:03.192Z,6.93
2019-01-29T19:00:26.719Z,6.69
2019-01-29T19:01:32.770Z,6.43
2019-01-29T19:02:38.828Z,6.20
2019-01-29T19:03:45.298Z,6.01
2019-01-29T19:04:51.458Z,5.81
2019-01-29T19:05:57.778Z,5.64
2019-01-29T19:07:03.736Z,5.43
2019-01-29T19:08:10.659Z,5.27
2019-01-29T19:09:37.138Z,5.24
2019-01-29T19:12:29.138Z,6.67
2019-01-29T19:13:41.208Z,7.47
2019-01-29T19:14:58.855Z,8.17
2019-01-29T19:16:19.318Z,8.72
2019-01-29T19:17:37.594Z,9.06
2019-01-29T19:19:04.621Z,8.87
2019-01-29T19:20:29.212Z,8.48
2019-01-29T19:21:49.085Z,8.07
2019-01-29T19:23:19.693Z,7.66
2019-01-29T19:24:38.413Z,7.31
2019-01-29T19:25:58.317Z,6.96
2019-01-29T19:27:19.818Z,6.72
2019-01-29T19:28:41.276Z,6.40
2019-01-29T19:30:11.056Z,6.13
2019-01-29T19:31:45.964Z,5.88
2019-01-29T19:33:11.937Z,5.63
2019-01-29T19:34:35.239Z,5.39
2019-01-29T19:35:58.268Z,5.22
2019-01-29T19:37:28.631Z,5.50
2019-01-29T19:38:47.637Z,6.40
2019-01-29T19:40:21.026Z,7.27
2019-01-29T19:41:30.198Z,8.07
2019-01-29T19:42:41.582Z,8.63
2019-01-29T19:43:52.866Z,9.01
2019-01-29T19:45:06.114Z,8.94
2019-01-29T19:46:22.195Z,8.56
2019-01-29T19:47:36.358Z,8.20
2019-01-29T19:48:51.346Z,7.86
2019-01-29T19:50:05.722Z,7.54
2019-01-29T19:51:22.271Z,7.20
2019-01-29T19:52:35.515Z,6.92
2019-01-29T19:53:50.167Z,6.65
2019-01-29T19:55:05.341Z,6.40
2019-01-29T19:56:22.060Z,6.14
2019-01-29T19:57:40.638Z,5.88
2019-01-29T19:58:56.078Z,5.67
2019-01-29T20:00:32.706Z,5.47
2019-01-29T20:01:51.073Z,5.19
2019-01-29T20:03:12.437Z,5.40
2019-01-29T20:04:29.354Z,6.14
2019-01-29T20:05:47.457Z,7.02
2019-01-29T20:07:06.376Z,7.74
2019-01-29T20:08:29.954Z,8.35
2019-01-29T20:09:40.872Z,8.77
2019-01-29T20:10:56.880Z,8.67
2019-01-29T20:12:09.655Z,8.34
2019-01-29T20:13:20.647Z,8.00
2019-01-29T20:14:33.618Z,7.68
2019-01-29T20:15:46.246Z,7.34
2019-01-29T20:16:58.642Z,7.03
2019-01-29T20:18:14.798Z,6.74
2019-01-29T20:19:28.352Z,6.47
2019-01-29T20:20:44.565Z,6.23
2019-01-29T20:21:57.045Z,5.99
2019-01-29T20:23:08.566Z,5.77
2019-01-29T20:24:17.263Z,5.58
2019-01-29T20:25:24.842Z,5.39
2019-01-29T20:26:32.569Z,5.26
2019-01-29T20:27:41.878Z,5.27
2019-01-29T20:28:53.300Z,5.66
2019-01-29T20:30:05.538Z,6.23
2019-01-29T20:31:23.967Z,7.00
2019-01-29T20:32:39.100Z,7.76
2019-01-29T20:33:50.521Z,8.32
2019-01-29T20:35:07.146Z,8.70
2019-01-29T20:36:19.368Z,8.58
2019-01-29T20:37:35.601Z,8.28
2019-01-29T20:38:49.674Z,7.90
2019-01-29T20:39:56.017Z,7.57
2019-01-29T20:41:03.640Z,7.27
2019-01-29T20:42:09.682Z,7.00
2019-01-29T20:43:15.760Z,6.74
2019-01-29T20:44:24.225Z,6.50
2019-01-29T20:45:31.727Z,6.26
2019-01-29T20:46:40.980Z,6.01
2019-01-29T20:48:00.672Z,5.82
2019-01-29T20:49:15.878Z,5.54
2019-01-29T20:50:32.093Z,5.37
2019-01-29T20:51:47.616Z,5.20
2019-01-29T20:53:02.338Z,5.54
2019-01-29T20:54:20.279Z,6.27
2019-01-29T20:55:35.161Z,7.16
2019-01-29T20:56:50.956Z,7.82
2019-01-29T20:58:08.059Z,8.37
2019-01-29T20:59:22.238Z,8.69
2019-01-29T21:00:49.377Z,8.62
2019-01-29T21:02:14.245Z,8.18
2019-01-29T21:03:31.357Z,7.75
2019-01-29T21:04:51.787Z,7.41
2019-01-29T21:06:10.150Z,7.03
2019-01-29T21:07:25.031Z,6.72
2019-01-29T21:08:43.305Z,6.43
2019-01-29T21:17:28.397Z,5.56
2019-01-29T21:18:50.519Z,5.57
2019-01-29T21:20:22.833Z,5.44
2019-01-29T21:21:40.558Z,5.22
2019-01-29T21:22:49.440Z,5.36
2019-01-29T21:23:59.912Z,5.66
2019-01-29T21:25:11.817Z,5.67
2019-01-29T21:26:29.097Z,5.57
2019-01-29T21:27:43.770Z,5.37
2019-01-29T21:29:02.718Z,5.20
2019-01-29T21:30:15.106Z,5.43
2019-01-29T21:31:28.797Z,6.20
2019-01-29T21:32:40.758Z,6.99
2019-01-29T21:33:50.313Z,7.69
2019-01-29T21:35:33.164Z,8.31
2019-01-29T21:36:45.538Z,8.69
2019-01-29T21:38:00.997Z,8.53
2019-01-29T21:39:23.666Z,8.21
2019-01-29T21:40:43.356Z,7.83
2019-01-29T21:42:02.055Z,7.47
2019-01-29T21:43:27.247Z,7.16
2019-01-29T21:44:46.998Z,6.82
2019-01-29T21:46:17.637Z,6.52
2019-01-29T21:48:09.979Z,6.29
2019-01-29T21:49:47.063Z,5.96
2019-01-29T21:51:11.857Z,5.67
2019-01-29T21:56:09.067Z,5.64
2019-01-29T21:57:19.870Z,6.45
2019-01-29T21:58:28.959Z,7.17
2019-01-29T21:59:38.439Z,7.81
2019-01-29T22:00:47.757Z,8.34
2019-01-29T22:01:58.905Z,8.66
2019-01-29T22:03:12.390Z,8.59
2019-01-29T22:04:25.457Z,8.28
2019-01-29T22:05:38.097Z,7.92
2019-01-29T22:06:47.437Z,7.59
2019-01-29T22:07:57.649Z,7.27
2019-01-29T22:09:11.122Z,6.99
2019-01-29T22:10:20.477Z,6.72
2019-01-29T22:11:29.167Z,6.48
2019-01-29T22:12:49.438Z,6.27
2019-01-29T22:14:05.946Z,6.01
2019-01-29T22:15:32.530Z,5.81
2019-01-29T22:16:41.516Z,5.57
2019-01-29T22:17:55.778Z,5.40
2019-01-29T22:19:01.946Z,5.23
2019-01-29T22:20:16.343Z,5.30
2019-01-29T22:21:25.376Z,5.71
2019-01-29T22:22:37.486Z,6.34
2019-01-29T22:23:39.144Z,7.03
2019-01-29T22:24:44.970Z,7.68
2019-01-29T22:25:50.684Z,8.25
2019-01-29T22:26:56.351Z,8.63
2019-01-29T22:28:02.721Z,8.65
2019-01-29T22:29:08.322Z,8.39
2019-01-29T22:30:30.439Z,8.09
2019-01-29T22:31:36.190Z,7.66
2019-01-29T22:32:42.030Z,7.34
2019-01-29T22:33:52.597Z,7.06
2019-01-29T22:34:58.516Z,6.79
2019-01-29T22:36:04.470Z,6.55
2019-01-29T22:37:11.239Z,6.30
2019-01-29T22:38:17.077Z,6.08
2019-01-29T22:39:23.810Z,5.85
2019-01-29T22:40:32.308Z,5.63
2019-01-29T22:41:39.197Z,5.46
2019-01-29T22:42:45.246Z,5.27
2019-01-29T22:43:51.918Z,5.24
2019-01-29T22:44:58.337Z,5.57
2019-01-29T22:46:05.887Z,6.14
2019-01-29T22:47:11.407Z,6.85
2019-01-29T22:48:16.939Z,7.49
2019-01-29T22:49:23.899Z,8.06
2019-01-29T22:50:36.734Z,8.44
2019-01-29T22:51:42.339Z,8.39
2019-01-29T22:52:48.808Z,8.11
2019-01-29T22:53:54.809Z,7.76
2019-01-29T22:55:00.687Z,7.45
2019-01-29T22:56:07.720Z,7.14
2019-01-29T22:57:15.610Z,6.88
2019-01-29T22:58:21.043Z,6.61
2019-01-29T22:59:33.377Z,6.40
2019-01-29T23:00:56.814Z,6.13
2019-01-29T23:02:02.367Z,5.91
2019-01-29T23:03:07.800Z,5.71
2019-01-29T23:04:13.169Z,5.53
2019-01-29T23:05:18.381Z,5.36
2019-01-29T23:06:50.194Z,5.23
2019-01-29T23:07:55.746Z,5.57
2019-01-29T23:09:01.646Z,6.26
2019-01-29T23:10:15.619Z,7.04
2019-01-29T23:11:22.180Z,7.76
2019-01-29T23:12:28.199Z,8.34
2019-01-29T23:13:36.557Z,8.72
2019-01-29T23:14:43.296Z,8.69
2019-01-29T23:15:49.477Z,8.47
2019-01-29T23:16:56.335Z,8.11
2019-01-29T23:18:03.456Z,7.81
2019-01-29T23:19:10.577Z,7.49
2019-01-29T23:20:18.327Z,7.17
2019-01-29T23:21:24.647Z,6.88
2019-01-29T23:22:31.051Z,6.59
2019-01-29T23:23:38.248Z,6.36
2019-01-29T23:24:44.767Z,6.14
2019-01-29T23:25:51.806Z,5.95
2019-01-29T23:26:58.818Z,5.71
2019-01-29T23:28:05.052Z,5.54
2019-01-29T23:29:10.416Z,5.34
2019-01-29T23:30:19.512Z,5.19
2019-01-29T23:31:25.814Z,5.43
2019-01-29T23:32:31.222Z,6.01
2019-01-29T23:33:36.453Z,6.78
2019-01-29T23:34:41.902Z,7.47
2019-01-29T23:35:47.277Z,8.04
2019-01-29T23:36:52.589Z,8.39
2019-01-29T23:37:57.987Z,8.38
2019-01-29T23:39:05.327Z,8.14
2019-01-29T23:40:19.566Z,7.81
2019-01-29T23:41:25.485Z,7.42
2019-01-29T23:42:31.222Z,7.12
2019-01-29T23:43:37.657Z,6.82
2019-01-29T23:44:43.388Z,6.52
2019-01-29T23:45:50.147Z,6.29
2019-01-29T23:46:56.729Z,6.05
2019-01-29T23:48:02.125Z,5.84
2019-01-29T23:49:08.069Z,5.61
2019-01-29T23:50:18.977Z,5.41
2019-01-29T23:51:24.558Z,5.23
2019-01-29T23:52:30.617Z,5.30
2019-01-29T23:53:37.776Z,5.74
2019-01-29T23:54:43.300Z,6.36
2019-01-29T23:55:49.813Z,7.07
2019-01-29T23:56:57.277Z,7.75
2019-01-29T23:58:03.278Z,8.28
2019-01-29T23:59:08.558Z,8.67
